createdAt,value
2022-11-19T00:01:32.699Z,34.87
2022-11-19T00:04:00.186Z,34.63
2022-11-19T00:06:28.046Z,36.77
2022-11-19T00:08:55.733Z,35.17
2022-11-19T00:11:47.268Z,33.77
2022-11-19T00:14:16.204Z,32.47
2022-11-19T00:16:44.433Z,32.33
2022-11-19T00:19:12.651Z,34.20
2022-11-19T00:21:40.308Z,33.77
2022-11-19T00:24:08.785Z,33.47
2022-11-19T00:26:36.195Z,33.93
2022-11-19T00:29:03.771Z,36.23
2022-11-19T00:31:31.911Z,32.97
2022-11-19T00:34:02.576Z,37.60
2022-11-19T00:36:30.209Z,35.47
2022-11-19T00:38:57.543Z,35.70
2022-11-19T00:41:24.973Z,34.73
2022-11-19T00:43:52.312Z,37.33
2022-11-19T00:46:21.432Z,38.30
2022-11-19T00:48:50.354Z,36.40
2022-11-19T00:51:19.496Z,37.53
2022-11-19T00:53:47.025Z,37.53
2022-11-19T00:56:17.659Z,36.53
2022-11-19T00:58:46.408Z,36.87
2022-11-19T01:01:15.288Z,37.37
2022-11-19T01:03:46.072Z,37.17
2022-11-19T01:06:19.023Z,37.97
2022-11-19T01:08:51.739Z,41.43
2022-11-19T01:11:28.123Z,39.07
2022-11-19T01:13:56.195Z,37.77
2022-11-19T01:16:27.125Z,37.23
2022-11-19T01:18:54.943Z,38.33
2022-11-19T01:21:25.498Z,34.93
2022-11-19T01:23:53.428Z,37.93
2022-11-19T01:26:21.475Z,35.37
2022-11-19T01:28:49.175Z,37.50
2022-11-19T01:31:22.756Z,35.23
2022-11-19T01:33:50.574Z,35.10
2022-11-19T01:36:26.916Z,37.17
2022-11-19T01:38:54.758Z,38.17
2022-11-19T01:41:30.506Z,36.20
2022-11-19T01:44:04.247Z,36.00
2022-11-19T01:46:35.156Z,34.33
2022-11-19T01:49:02.566Z,33.93
2022-11-19T01:51:40.646Z,35.63
2022-11-19T01:54:14.469Z,34.43
2022-11-19T01:56:42.054Z,33.30
2022-11-19T01:59:17.414Z,35.63
2022-11-19T02:01:45.731Z,36.07
2022-11-19T02:04:16.400Z,36.80
2022-11-19T02:06:45.427Z,35.17
2022-11-19T02:09:12.793Z,35.00
2022-11-19T02:12:11.741Z,34.90
2022-11-19T02:14:41.863Z,36.30
2022-11-19T02:17:18.044Z,37.87
2022-11-19T02:20:02.544Z,33.73
2022-11-19T02:22:52.200Z,33.77
2022-11-19T02:25:44.415Z,34.80
2022-11-19T02:28:31.804Z,35.83
2022-11-19T02:31:16.492Z,36.47
2022-11-19T02:33:55.733Z,34.60
2022-11-19T02:36:36.517Z,37.13
2022-11-19T02:39:10.402Z,36.03
2022-11-19T02:41:44.713Z,37.27
2022-11-19T02:44:48.383Z,37.03
2022-11-19T02:47:26.783Z,40.43
2022-11-19T02:49:59.371Z,39.80
2022-11-19T02:52:27.618Z,40.77
2022-11-19T02:54:55.096Z,41.87
2022-11-19T02:57:22.456Z,40.20
2022-11-19T03:00:28.695Z,39.93
2022-11-19T03:03:32.271Z,41.47
2022-11-19T03:06:05.195Z,38.10
2022-11-19T03:08:32.822Z,40.30
2022-11-19T03:11:12.764Z,37.97
2022-11-19T03:14:27.897Z,38.67
2022-11-19T03:17:27.313Z,37.93
2022-11-19T03:20:14.434Z,41.13
2022-11-19T03:22:51.324Z,38.93
2022-11-19T03:25:47.269Z,41.23
2022-11-19T03:28:19.827Z,40.30
2022-11-19T03:30:49.416Z,40.77
2022-11-19T03:33:25.839Z,40.50
2022-11-19T03:36:18.650Z,42.57
2022-11-19T03:38:52.466Z,39.73
2022-11-19T03:41:21.940Z,41.30
2022-11-19T03:44:02.081Z,41.57
2022-11-19T03:46:33.431Z,40.70
2022-11-19T03:49:03.880Z,39.73
2022-11-19T03:51:43.997Z,43.80
2022-11-19T03:54:11.710Z,42.37
2022-11-19T03:56:41.558Z,44.93
2022-11-19T03:59:11.240Z,45.07
2022-11-19T04:01:39.764Z,44.03
2022-11-19T04:04:25.904Z,44.70
2022-11-19T04:06:53.878Z,42.10
2022-11-19T04:09:21.553Z,43.30
2022-11-19T04:14:15.376Z,41.37
2022-11-19T04:16:42.724Z,43.03
2022-11-19T04:19:10.145Z,42.70
2022-11-19T04:21:37.708Z,40.97
2022-11-19T04:24:05.472Z,41.10
2022-11-19T04:26:32.816Z,42.33
2022-11-19T04:29:00.359Z,44.10
2022-11-19T04:31:27.732Z,42.50
2022-11-19T04:33:55.075Z,38.47
2022-11-19T04:36:22.693Z,42.87
2022-11-19T04:38:50.129Z,42.57
2022-11-19T04:41:17.553Z,45.20
2022-11-19T04:43:44.868Z,39.97
2022-11-19T04:46:12.215Z,41.33
2022-11-19T04:48:39.570Z,41.10
2022-11-19T04:51:07.094Z,38.37
2022-11-19T04:53:34.657Z,39.20
2022-11-19T04:56:02.293Z,39.27
2022-11-19T04:58:29.672Z,38.97
2022-11-19T05:00:57.056Z,36.67
2022-11-19T05:03:24.517Z,38.30
2022-11-19T05:05:51.837Z,36.00
2022-11-19T05:08:19.794Z,37.40
2022-11-19T05:10:47.168Z,39.47
2022-11-19T05:13:14.545Z,39.17
2022-11-19T05:15:41.911Z,38.70
2022-11-19T05:18:09.515Z,38.27
2022-11-19T05:20:36.835Z,39.77
2022-11-19T05:23:04.743Z,37.90
2022-11-19T05:25:32.150Z,34.10
2022-11-19T05:27:59.497Z,37.90
2022-11-19T05:30:26.878Z,37.00
2022-11-19T05:32:54.263Z,35.63
2022-11-19T05:35:21.640Z,38.23
2022-11-19T05:37:50.193Z,34.90
2022-11-19T05:40:18.534Z,35.73
2022-11-19T05:42:45.904Z,35.17
2022-11-19T05:45:16.024Z,35.87
2022-11-19T05:47:47.396Z,33.97
2022-11-19T05:50:16.516Z,36.37
2022-11-19T05:52:43.914Z,33.30
2022-11-19T05:55:11.283Z,35.90
2022-11-19T05:57:38.586Z,33.33
2022-11-19T06:00:06.552Z,33.10
2022-11-19T06:02:39.854Z,36.43
2022-11-19T06:05:07.663Z,34.87
2022-11-19T06:07:35.088Z,32.70
2022-11-19T06:10:02.639Z,31.57
2022-11-19T06:12:30.035Z,33.17
2022-11-19T06:14:57.411Z,31.27
2022-11-19T06:17:24.727Z,34.77
2022-11-19T06:19:52.096Z,33.03
2022-11-19T06:22:19.398Z,31.57
2022-11-19T06:24:46.785Z,31.90
2022-11-19T06:27:14.183Z,32.87
2022-11-19T06:29:42.600Z,32.13
2022-11-19T06:32:10.000Z,32.63
2022-11-19T06:34:37.360Z,31.07
2022-11-19T06:37:04.794Z,31.27
2022-11-19T06:39:32.172Z,30.97
2022-11-19T06:42:19.480Z,29.37
2022-11-19T06:44:46.795Z,30.83
2022-11-19T06:47:14.172Z,30.07
2022-11-19T06:49:41.625Z,31.77
2022-11-19T06:52:08.992Z,29.17
2022-11-19T06:54:40.223Z,30.60
2022-11-19T06:57:10.357Z,29.97
2022-11-19T06:59:39.159Z,28.70
2022-11-19T07:02:07.379Z,28.83
2022-11-19T07:04:34.779Z,29.97
2022-11-19T07:07:02.269Z,33.13
2022-11-19T07:09:29.728Z,30.13
2022-11-19T07:11:57.131Z,29.63
2022-11-19T07:14:24.477Z,27.73
2022-11-19T07:16:51.896Z,28.10
2022-11-19T07:19:20.026Z,27.37
2022-11-19T07:21:47.776Z,28.17
2022-11-19T07:24:17.740Z,28.60
2022-11-19T07:26:45.400Z,27.40
2022-11-19T07:29:14.673Z,28.97
2022-11-19T07:31:42.414Z,26.67
2022-11-19T07:34:10.992Z,25.87
2022-11-19T07:36:38.531Z,27.37
2022-11-19T07:39:06.373Z,27.33
2022-11-19T07:41:52.945Z,28.83
2022-11-19T07:44:20.387Z,25.10
2022-11-19T07:46:47.736Z,26.70
2022-11-19T07:49:15.128Z,26.73
2022-11-19T07:51:43.169Z,26.13
2022-11-19T07:54:14.478Z,27.53
2022-11-19T07:56:42.369Z,25.63
2022-11-19T07:59:10.269Z,20.37
2022-11-19T08:01:38.508Z,19.70
2022-11-19T08:04:05.930Z,19.87
2022-11-19T08:06:34.769Z,19.70
2022-11-19T08:09:04.010Z,19.90
2022-11-19T08:11:31.910Z,23.67
2022-11-19T08:14:01.493Z,22.23
2022-11-19T08:16:48.205Z,22.83
2022-11-19T08:19:17.296Z,21.67
2022-11-19T08:21:47.081Z,17.97
2022-11-19T08:24:16.742Z,20.10
2022-11-19T08:26:45.077Z,20.93
2022-11-19T08:29:16.638Z,25.83
2022-11-19T08:31:46.018Z,20.77
2022-11-19T08:34:14.400Z,19.43
2022-11-19T08:36:42.307Z,20.10
2022-11-19T08:39:10.138Z,20.00
2022-11-19T08:41:56.267Z,19.33
2022-11-19T08:44:23.813Z,17.17
2022-11-19T08:46:51.304Z,18.23
2022-11-19T08:49:18.977Z,16.30
2022-11-19T08:51:46.418Z,18.03
2022-11-19T08:54:14.013Z,16.83
2022-11-19T08:56:41.366Z,16.40
2022-11-19T08:59:09.386Z,17.57
2022-11-19T09:01:36.722Z,19.47
2022-11-19T09:04:04.249Z,19.50
2022-11-19T09:06:34.786Z,19.40
2022-11-19T09:09:03.749Z,20.37
2022-11-19T09:11:31.438Z,17.00
2022-11-19T09:13:58.915Z,15.83
2022-11-19T09:16:26.401Z,17.47
2022-11-19T09:18:53.802Z,17.57
2022-11-19T09:21:21.138Z,15.37
2022-11-19T09:23:48.579Z,15.63
2022-11-19T09:29:12.445Z,17.23
2022-11-19T09:31:39.940Z,16.03
2022-11-19T09:34:07.951Z,16.43
2022-11-19T09:36:35.325Z,16.73
2022-11-19T09:39:03.731Z,17.83
2022-11-19T09:41:34.489Z,15.93
2022-11-19T09:44:26.400Z,16.53
2022-11-19T09:47:00.561Z,18.27
2022-11-19T09:49:30.396Z,17.60
2022-11-19T09:52:09.236Z,17.43
2022-11-19T09:54:43.982Z,17.07
2022-11-19T09:57:18.248Z,18.23
2022-11-19T09:59:46.282Z,17.47
2022-11-19T10:02:19.356Z,16.97
2022-11-19T10:04:48.756Z,17.97
2022-11-19T10:07:51.669Z,18.27
2022-11-19T10:10:51.384Z,18.07
2022-11-19T10:13:50.599Z,17.80
2022-11-19T10:16:51.084Z,17.47
2022-11-19T10:19:30.463Z,18.13
2022-11-19T10:22:00.603Z,18.40
2022-11-19T10:24:30.996Z,18.17
2022-11-19T10:27:07.257Z,16.07
2022-11-19T10:29:39.087Z,18.87
2022-11-19T10:32:24.846Z,18.03
2022-11-19T10:34:58.588Z,17.93
2022-11-19T10:37:34.491Z,17.90
2022-11-19T10:40:12.151Z,17.37
2022-11-19T10:42:44.642Z,17.67
2022-11-19T10:45:25.169Z,17.53
2022-11-19T10:48:09.569Z,16.60
2022-11-19T10:50:37.169Z,17.23
2022-11-19T10:53:26.626Z,17.33
2022-11-19T10:56:04.779Z,18.33
2022-11-19T10:58:40.501Z,18.63
2022-11-19T11:01:27.105Z,18.50
2022-11-19T11:04:16.931Z,17.03
2022-11-19T11:06:56.335Z,18.47
2022-11-19T11:09:29.910Z,16.57
2022-11-19T11:12:43.626Z,16.60
2022-11-19T11:15:16.080Z,16.63
2022-11-19T11:17:46.650Z,18.23
2022-11-19T11:20:20.136Z,17.30
2022-11-19T11:22:51.319Z,18.50
2022-11-19T11:25:27.024Z,16.13
2022-11-19T11:28:12.557Z,15.87
2022-11-19T11:30:59.854Z,14.57
2022-11-19T11:33:33.117Z,13.73
2022-11-19T11:36:22.932Z,13.57
2022-11-19T11:38:56.211Z,12.00
2022-11-19T11:44:24.781Z,12.10
2022-11-19T11:46:56.923Z,12.73
2022-11-19T11:49:37.509Z,11.90
2022-11-19T11:52:26.740Z,11.77
2022-11-19T11:54:57.656Z,13.63
2022-11-19T11:57:33.143Z,12.30
2022-11-19T12:00:02.368Z,12.23
2022-11-19T12:02:35.085Z,11.67
2022-11-19T12:05:14.854Z,13.20
2022-11-19T12:08:04.952Z,13.43
2022-11-19T12:10:39.506Z,14.27
2022-11-19T12:13:25.498Z,12.40
2022-11-19T12:16:36.811Z,14.40
2022-11-19T12:19:42.512Z,14.10
2022-11-19T12:22:35.641Z,15.07
2022-11-19T12:25:36.598Z,14.67
2022-11-19T12:28:43.616Z,15.73
2022-11-19T12:31:32.801Z,15.67
2022-11-19T12:34:03.323Z,17.33
2022-11-19T12:36:38.579Z,16.47
2022-11-19T12:39:24.255Z,17.57
2022-11-19T12:41:51.563Z,16.77
2022-11-19T12:45:03.331Z,17.33
2022-11-19T12:47:45.185Z,17.17
2022-11-19T12:50:24.740Z,15.83
2022-11-19T12:53:24.371Z,16.87
2022-11-19T12:56:18.675Z,17.50
2022-11-19T12:59:02.276Z,17.40
2022-11-19T13:01:35.756Z,19.17
2022-11-19T13:04:03.138Z,18.77
2022-11-19T13:06:44.919Z,18.30
2022-11-19T13:09:32.968Z,17.50
2022-11-19T13:12:05.924Z,17.40
2022-11-19T13:14:41.116Z,17.87
2022-11-19T13:17:23.513Z,20.50
2022-11-19T13:19:56.768Z,19.07
2022-11-19T13:22:32.804Z,20.00
2022-11-19T13:25:05.529Z,19.57
2022-11-19T13:27:32.968Z,22.63
2022-11-19T13:30:00.254Z,19.37
2022-11-19T13:32:43.168Z,18.33
2022-11-19T13:35:32.776Z,18.83
2022-11-19T13:38:03.199Z,18.50
2022-11-19T13:40:56.831Z,18.50
2022-11-19T13:43:42.746Z,18.20
2022-11-19T13:46:18.588Z,18.43
2022-11-19T13:49:00.356Z,18.97
2022-11-19T13:51:42.577Z,18.50
2022-11-19T13:54:26.736Z,17.70
2022-11-19T13:56:57.365Z,19.03
2022-11-19T13:59:39.084Z,19.50
2022-11-19T14:02:31.696Z,19.47
2022-11-19T14:05:11.183Z,19.97
2022-11-19T14:07:49.219Z,19.67
2022-11-19T14:10:30.883Z,21.13
2022-11-19T14:13:19.418Z,21.63
2022-11-19T14:16:25.629Z,20.37
2022-11-19T14:19:18.903Z,18.57
2022-11-19T14:22:07.537Z,18.53
2022-11-19T14:24:53.634Z,21.20
2022-11-19T14:27:27.816Z,18.63
2022-11-19T14:29:58.216Z,20.97
2022-11-19T14:32:46.366Z,19.30
2022-11-19T14:35:26.610Z,20.67
2022-11-19T14:38:28.874Z,19.00
2022-11-19T14:41:08.339Z,19.20
2022-11-19T14:44:08.452Z,20.17
2022-11-19T14:46:44.398Z,20.40
2022-11-19T14:49:34.558Z,20.63
2022-11-19T14:52:03.224Z,19.73
2022-11-19T14:54:42.376Z,19.90
2022-11-19T14:57:38.298Z,19.33
2022-11-19T15:00:14.484Z,19.30
2022-11-19T15:02:51.917Z,23.03
2022-11-19T15:05:23.505Z,20.57
2022-11-19T15:08:12.453Z,20.67
2022-11-19T15:10:46.385Z,22.20
2022-11-19T15:13:18.674Z,19.57
2022-11-19T15:15:49.307Z,19.87
2022-11-19T15:18:28.635Z,19.33
2022-11-19T15:21:22.945Z,20.57
2022-11-19T15:24:12.490Z,21.10
2022-11-19T15:26:48.878Z,22.10
2022-11-19T15:29:44.863Z,21.43
2022-11-19T15:32:43.200Z,21.67
2022-11-19T15:35:45.672Z,20.83
2022-11-19T15:38:18.484Z,20.43
2022-11-19T15:40:49.914Z,20.83
2022-11-19T15:43:42.340Z,22.40
2022-11-19T15:46:20.271Z,21.23
2022-11-19T15:49:16.472Z,22.63
2022-11-19T15:51:58.220Z,24.60
2022-11-19T15:54:34.621Z,22.90
2022-11-19T15:57:17.696Z,21.53
2022-11-19T15:59:59.778Z,20.37
2022-11-19T16:02:27.135Z,22.23
2022-11-19T16:04:55.531Z,22.80
2022-11-19T16:07:25.287Z,20.07
2022-11-19T16:09:53.181Z,23.27
2022-11-19T16:12:41.641Z,23.83
2022-11-19T16:15:37.872Z,21.97
2022-11-19T16:18:16.218Z,22.10
2022-11-19T16:20:50.282Z,22.20
2022-11-19T16:23:27.050Z,23.20
2022-11-19T16:25:54.784Z,22.77
2022-11-19T16:28:32.672Z,23.03
2022-11-19T16:31:03.142Z,23.73
2022-11-19T16:33:32.701Z,23.30
2022-11-19T16:36:20.266Z,22.70
2022-11-19T16:38:49.905Z,23.37
2022-11-19T16:41:42.104Z,22.30
2022-11-19T16:44:17.019Z,22.80
2022-11-19T16:46:45.438Z,23.47
2022-11-19T16:49:48.200Z,23.63
2022-11-19T16:52:34.792Z,25.03
2022-11-19T16:55:07.088Z,22.83
2022-11-19T16:57:34.797Z,23.73
2022-11-19T17:00:13.404Z,23.10
2022-11-19T17:02:41.717Z,24.20
2022-11-19T17:05:13.953Z,24.97
2022-11-19T17:07:46.559Z,24.80
2022-11-19T17:10:31.320Z,24.20
2022-11-19T17:13:18.761Z,22.50
2022-11-19T17:15:50.119Z,22.97
2022-11-19T17:18:35.500Z,22.67
2022-11-19T17:21:06.787Z,21.63
2022-11-19T17:23:46.054Z,22.60
2022-11-19T17:26:18.921Z,24.13
2022-11-19T17:28:50.136Z,23.20
2022-11-19T17:31:24.121Z,22.87
2022-11-19T17:34:11.978Z,23.07
2022-11-19T17:36:39.951Z,21.23
2022-11-19T17:39:11.830Z,22.00
2022-11-19T17:41:59.888Z,21.20
2022-11-19T17:44:35.725Z,21.87
2022-11-19T17:47:24.179Z,23.37
2022-11-19T17:49:53.539Z,21.73
2022-11-19T17:52:24.528Z,22.83
2022-11-19T17:54:55.335Z,20.73
2022-11-19T17:57:23.173Z,22.73
2022-11-19T17:59:51.060Z,24.97
2022-11-19T18:02:20.601Z,25.73
2022-11-19T18:04:49.635Z,23.90
2022-11-19T18:07:17.341Z,25.30
2022-11-19T18:09:45.008Z,24.33
2022-11-19T18:12:18.198Z,24.07
2022-11-19T18:14:50.075Z,23.83
2022-11-19T18:17:18.016Z,23.73
2022-11-19T18:19:46.216Z,23.83
2022-11-19T18:22:18.694Z,22.23
2022-11-19T18:24:50.819Z,23.57
2022-11-19T18:27:20.161Z,24.07
2022-11-19T18:29:47.886Z,23.30
2022-11-19T18:32:17.320Z,26.57
2022-11-19T18:34:46.718Z,23.37
2022-11-19T18:37:14.958Z,25.23
2022-11-19T18:39:43.065Z,23.03
2022-11-19T18:42:13.301Z,24.90
2022-11-19T18:44:43.894Z,24.47
2022-11-19T18:47:14.620Z,26.13
2022-11-19T18:49:43.486Z,25.13
2022-11-19T18:52:17.798Z,25.13
2022-11-19T18:54:46.237Z,24.20
2022-11-19T18:57:14.815Z,23.93
2022-11-19T18:59:42.692Z,25.23
2022-11-19T19:02:10.987Z,24.60
2022-11-19T19:04:39.400Z,24.97
2022-11-19T19:07:07.572Z,23.63
2022-11-19T19:09:37.741Z,24.37
2022-11-19T19:12:17.980Z,24.33
2022-11-19T19:14:48.140Z,22.33
2022-11-19T19:17:17.431Z,23.97
2022-11-19T19:19:46.448Z,26.47
2022-11-19T19:22:15.161Z,26.40
2022-11-19T19:24:43.507Z,24.30
2022-11-19T19:27:13.396Z,24.90
2022-11-19T19:29:42.814Z,24.07
2022-11-19T19:32:12.476Z,23.53
2022-11-19T19:34:41.552Z,25.77
2022-11-19T19:37:09.635Z,25.53
2022-11-19T19:39:37.659Z,24.87
2022-11-19T19:42:09.115Z,24.87
2022-11-19T19:44:37.809Z,22.77
2022-11-19T19:47:07.144Z,22.53
2022-11-19T19:49:38.827Z,24.83
2022-11-19T19:52:08.813Z,22.67
2022-11-19T19:54:41.638Z,23.13
2022-11-19T19:57:09.624Z,25.10
2022-11-19T19:59:37.733Z,21.50
2022-11-19T20:02:07.571Z,24.03
2022-11-19T20:04:37.346Z,22.07
2022-11-19T20:07:07.398Z,22.33
2022-11-19T20:09:35.709Z,22.17
2022-11-19T20:12:06.067Z,23.43
2022-11-19T20:14:37.330Z,22.60
2022-11-19T20:17:06.825Z,21.30
2022-11-19T20:19:37.749Z,23.33
2022-11-19T20:22:12.708Z,21.33
2022-11-19T20:24:42.274Z,23.37
2022-11-19T20:27:12.068Z,23.37
2022-11-19T20:29:43.163Z,22.47
2022-11-19T20:32:22.299Z,22.50
2022-11-19T20:34:50.031Z,21.20
2022-11-19T20:37:18.385Z,22.63
2022-11-19T20:39:46.548Z,23.40
2022-11-19T20:42:32.945Z,22.23
2022-11-19T20:45:01.014Z,22.57
2022-11-19T20:47:28.699Z,22.87
2022-11-19T20:49:56.869Z,21.57
2022-11-19T20:52:25.255Z,22.23
2022-11-19T20:54:53.729Z,24.63
2022-11-19T20:57:21.992Z,23.57
2022-11-19T20:59:49.571Z,23.07
2022-11-19T21:02:17.424Z,23.10
2022-11-19T21:04:45.805Z,25.33
2022-11-19T21:07:13.852Z,25.97
2022-11-19T21:09:42.777Z,23.53
2022-11-19T21:12:12.704Z,27.33
2022-11-19T21:14:40.719Z,24.47
2022-11-19T21:17:12.406Z,24.73
2022-11-19T21:19:41.499Z,25.87
2022-11-19T21:22:13.105Z,25.07
2022-11-19T21:24:42.070Z,24.63
2022-11-19T21:27:11.832Z,24.43
2022-11-19T21:29:39.791Z,24.73
2022-11-19T21:32:10.717Z,24.83
2022-11-19T21:34:43.069Z,22.33
2022-11-19T21:37:11.420Z,24.33
2022-11-19T21:39:41.217Z,24.07
2022-11-19T21:42:11.675Z,25.17
2022-11-19T21:44:42.626Z,25.17
2022-11-19T21:47:11.799Z,26.83
2022-11-19T21:49:41.841Z,28.43
2022-11-19T21:52:11.384Z,28.33
2022-11-19T21:54:41.691Z,26.40
2022-11-19T21:57:09.350Z,26.80
2022-11-19T21:59:37.093Z,26.83
2022-11-19T22:02:04.685Z,27.07
2022-11-19T22:04:32.188Z,28.27
2022-11-19T22:06:59.582Z,27.00
2022-11-19T22:09:26.956Z,27.20
2022-11-19T22:11:54.311Z,25.90
2022-11-19T22:14:21.862Z,30.57
2022-11-19T22:16:51.643Z,28.40
2022-11-19T22:19:20.388Z,27.80
2022-11-19T22:21:47.925Z,27.50
2022-11-19T22:24:15.299Z,30.57
2022-11-19T22:26:44.308Z,29.83
2022-11-19T22:29:12.207Z,29.37
2022-11-19T22:31:39.515Z,26.47
2022-11-19T22:34:06.973Z,28.47
2022-11-19T22:36:34.335Z,31.67
2022-11-19T22:39:01.799Z,27.00
2022-11-19T22:41:29.200Z,30.43
2022-11-19T22:43:57.572Z,30.27
2022-11-19T22:46:25.055Z,31.50
2022-11-19T22:48:52.537Z,31.57
2022-11-19T22:51:22.872Z,30.63
2022-11-19T22:53:52.335Z,28.67
2022-11-19T22:56:24.226Z,27.43
2022-11-19T22:58:55.531Z,28.73
2022-11-19T23:01:31.666Z,31.53
2022-11-19T23:04:01.914Z,30.63
2022-11-19T23:06:29.475Z,29.80
2022-11-19T23:08:56.882Z,29.77
2022-11-19T23:11:45.627Z,30.33
2022-11-19T23:14:15.951Z,27.20
2022-11-19T23:16:45.887Z,26.87
2022-11-19T23:19:16.120Z,29.23
2022-11-19T23:21:43.751Z,27.27
2022-11-19T23:24:14.935Z,30.63
2022-11-19T23:26:42.428Z,27.37
2022-11-19T23:29:11.308Z,27.10
2022-11-19T23:31:40.016Z,28.27
2022-11-19T23:34:10.365Z,25.43
2022-11-19T23:36:40.194Z,26.77
2022-11-19T23:39:13.503Z,25.10
2022-11-19T23:41:40.872Z,28.30
2022-11-19T23:44:08.415Z,27.17
2022-11-19T23:46:36.167Z,29.37
2022-11-19T23:49:05.564Z,25.93
2022-11-19T23:51:36.361Z,26.70
2022-11-19T23:54:05.268Z,28.13
2022-11-19T23:56:36.060Z,26.30
2022-11-19T23:59:06.131Z,30.97
